Terminal Aerodrome Forecast
Issued by NWS

Home | Current Version | Previous Version | Text Only | Print | Product List | Glossary On
Versions: 1 2 3 4 5 6 7 8 9 10 11 12 13 14 15 16 17 18 19 20 21 22 23 24 25 26 27 28 29 30 31 32 33 34 35 36 37
000
FTUS46 KPQR 191337 AAB
TAFONP
TAF AMD
KONP 191337Z 1914/2012 09003KT P6SM OVC010
      TEMPO 1914/1917 5SM BR BKN008
     FM191700 36005KT P6SM BKN012
     FM191900 35014KT P6SM SCT012
     FM200000 01008KT P6SM SKC
     FM200900 VRB03KT 2SM BR BKN002=

USA.gov is the U.S. government's official web portal to all federal, state and local government web resources and services.